sensor_id;sensor_type;location;lat;lon;timestamp;temperature;humidity
52209;DHT22;38507;53.132;6.394;2022-07-11T00:01:37;15.80;99.90
52209;DHT22;38507;53.132;6.394;2022-07-11T00:04:03;15.50;99.90
52209;DHT22;38507;53.132;6.394;2022-07-11T00:06:29;15.50;99.90
52209;DHT22;38507;53.132;6.394;2022-07-11T00:08:54;15.50;99.90
52209;DHT22;38507;53.132;6.394;2022-07-11T00:11:20;15.50;99.90
52209;DHT22;38507;53.132;6.394;2022-07-11T00:13:46;15.50;99.90
52209;DHT22;38507;53.132;6.394;2022-07-11T00:16:11;15.40;99.90
52209;DHT22;38507;53.132;6.394;2022-07-11T00:18:38;15.40;99.90
52209;DHT22;38507;53.132;6.394;2022-07-11T00:21:04;15.40;99.90
52209;DHT22;38507;53.132;6.394;2022-07-11T00:23:30;15.40;99.90
52209;DHT22;38507;53.132;6.394;2022-07-11T00:25:55;15.30;99.90
52209;DHT22;38507;53.132;6.394;2022-07-11T00:28:21;15.30;99.90
52209;DHT22;38507;53.132;6.394;2022-07-11T00:30:47;15.40;99.90
52209;DHT22;38507;53.132;6.394;2022-07-11T00:33:12;15.30;99.90
52209;DHT22;38507;53.132;6.394;2022-07-11T00:35:38;15.30;99.90
52209;DHT22;38507;53.132;6.394;2022-07-11T00:38:03;15.30;99.90
52209;DHT22;38507;53.132;6.394;2022-07-11T00:40:29;15.30;99.90
52209;DHT22;38507;53.132;6.394;2022-07-11T00:42:55;15.30;99.90
52209;DHT22;38507;53.132;6.394;2022-07-11T00:45:20;15.30;99.90
52209;DHT22;38507;53.132;6.394;2022-07-11T00:47:46;15.30;99.90
52209;DHT22;38507;53.132;6.394;2022-07-11T00:50:13;15.40;99.90
52209;DHT22;38507;53.132;6.394;2022-07-11T00:52:40;15.30;99.90
52209;DHT22;38507;53.132;6.394;2022-07-11T00:55:07;15.30;99.90
52209;DHT22;38507;53.132;6.394;2022-07-11T00:57:34;15.20;99.90
52209;DHT22;38507;53.132;6.394;2022-07-11T01:00:01;15.30;99.90
52209;DHT22;38507;53.132;6.394;2022-07-11T01:02:27;15.20;99.90
52209;DHT22;38507;53.132;6.394;2022-07-11T01:04:53;15.50;99.90
52209;DHT22;38507;53.132;6.394;2022-07-11T01:07:18;15.20;99.90
52209;DHT22;38507;53.132;6.394;2022-07-11T01:09:44;15.20;99.90
52209;DHT22;38507;53.132;6.394;2022-07-11T01:12:09;15.20;99.90
52209;DHT22;38507;53.132;6.394;2022-07-11T01:14:35;15.20;99.90
52209;DHT22;38507;53.132;6.394;2022-07-11T01:17:01;15.20;99.90
52209;DHT22;38507;53.132;6.394;2022-07-11T01:19:26;15.20;99.90
52209;DHT22;38507;53.132;6.394;2022-07-11T01:21:56;15.20;99.90
52209;DHT22;38507;53.132;6.394;2022-07-11T01:24:22;15.20;99.90
52209;DHT22;38507;53.132;6.394;2022-07-11T01:26:48;15.20;99.90
52209;DHT22;38507;53.132;6.394;2022-07-11T01:29:14;15.30;99.90
52209;DHT22;38507;53.132;6.394;2022-07-11T01:31:41;15.20;99.90
52209;DHT22;38507;53.132;6.394;2022-07-11T01:34:07;15.20;99.90
52209;DHT22;38507;53.132;6.394;2022-07-11T01:36:33;15.20;99.90
52209;DHT22;38507;53.132;6.394;2022-07-11T01:38:59;15.20;99.90
52209;DHT22;38507;53.132;6.394;2022-07-11T01:41:24;15.30;99.90
52209;DHT22;38507;53.132;6.394;2022-07-11T01:43:50;15.40;99.90
52209;DHT22;38507;53.132;6.394;2022-07-11T01:46:16;15.20;99.90
52209;DHT22;38507;53.132;6.394;2022-07-11T01:48:43;15.30;99.90
52209;DHT22;38507;53.132;6.394;2022-07-11T01:51:09;15.20;99.90
52209;DHT22;38507;53.132;6.394;2022-07-11T01:53:35;15.40;99.90
52209;DHT22;38507;53.132;6.394;2022-07-11T01:56:00;15.20;99.90
52209;DHT22;38507;53.132;6.394;2022-07-11T01:58:26;15.20;99.90
52209;DHT22;38507;53.132;6.394;2022-07-11T02:00:52;15.10;99.90
52209;DHT22;38507;53.132;6.394;2022-07-11T02:03:18;15.20;99.90
52209;DHT22;38507;53.132;6.394;2022-07-11T02:05:43;15.20;99.90
52209;DHT22;38507;53.132;6.394;2022-07-11T02:08:10;15.20;99.90
52209;DHT22;38507;53.132;6.394;2022-07-11T02:10:44;15.20;99.90
52209;DHT22;38507;53.132;6.394;2022-07-11T02:13:12;15.20;99.90
52209;DHT22;38507;53.132;6.394;2022-07-11T02:15:38;15.20;99.90
52209;DHT22;38507;53.132;6.394;2022-07-11T02:18:04;15.30;99.90
52209;DHT22;38507;53.132;6.394;2022-07-11T02:20:30;15.20;99.90
52209;DHT22;38507;53.132;6.394;2022-07-11T02:22:56;15.20;99.90
52209;DHT22;38507;53.132;6.394;2022-07-11T02:25:24;15.10;99.90
52209;DHT22;38507;53.132;6.394;2022-07-11T02:27:50;15.10;99.90
52209;DHT22;38507;53.132;6.394;2022-07-11T02:30:16;15.20;99.90
52209;DHT22;38507;53.132;6.394;2022-07-11T02:32:42;15.10;99.90
52209;DHT22;38507;53.132;6.394;2022-07-11T02:35:08;15.10;99.90
52209;DHT22;38507;53.132;6.394;2022-07-11T02:37:34;15.10;99.90
52209;DHT22;38507;53.132;6.394;2022-07-11T02:40:00;15.10;99.90
52209;DHT22;38507;53.132;6.394;2022-07-11T02:42:26;15.20;99.90
52209;DHT22;38507;53.132;6.394;2022-07-11T02:44:52;15.10;99.90
52209;DHT22;38507;53.132;6.394;2022-07-11T02:47:17;15.10;99.90
52209;DHT22;38507;53.132;6.394;2022-07-11T02:49:43;15.10;99.90
52209;DHT22;38507;53.132;6.394;2022-07-11T02:52:09;15.20;99.90
52209;DHT22;38507;53.132;6.394;2022-07-11T02:54:35;15.10;99.90
52209;DHT22;38507;53.132;6.394;2022-07-11T02:57:00;15.20;99.90
52209;DHT22;38507;53.132;6.394;2022-07-11T02:59:26;15.10;99.90
52209;DHT22;38507;53.132;6.394;2022-07-11T03:01:52;15.20;99.90
52209;DHT22;38507;53.132;6.394;2022-07-11T03:04:18;15.10;99.90
52209;DHT22;38507;53.132;6.394;2022-07-11T03:06:43;15.20;99.90
52209;DHT22;38507;53.132;6.394;2022-07-11T03:09:09;15.30;99.90
52209;DHT22;38507;53.132;6.394;2022-07-11T03:11:35;15.10;99.90
52209;DHT22;38507;53.132;6.394;2022-07-11T03:14:01;15.10;99.90
52209;DHT22;38507;53.132;6.394;2022-07-11T03:16:28;15.10;99.90
52209;DHT22;38507;53.132;6.394;2022-07-11T03:18:54;15.30;99.90
52209;DHT22;38507;53.132;6.394;2022-07-11T03:21:20;15.10;99.90
52209;DHT22;38507;53.132;6.394;2022-07-11T03:23:46;15.30;99.90
52209;DHT22;38507;53.132;6.394;2022-07-11T03:26:11;15.30;99.90
52209;DHT22;38507;53.132;6.394;2022-07-11T03:28:37;15.40;99.90
52209;DHT22;38507;53.132;6.394;2022-07-11T03:31:03;15.20;99.90
52209;DHT22;38507;53.132;6.394;2022-07-11T03:33:29;15.10;99.90
52209;DHT22;38507;53.132;6.394;2022-07-11T03:35:55;15.40;99.90
52209;DHT22;38507;53.132;6.394;2022-07-11T03:38:21;15.20;99.90
52209;DHT22;38507;53.132;6.394;2022-07-11T03:40:47;15.30;99.90
52209;DHT22;38507;53.132;6.394;2022-07-11T03:43:13;15.10;99.90
52209;DHT22;38507;53.132;6.394;2022-07-11T03:45:39;15.10;99.90
52209;DHT22;38507;53.132;6.394;2022-07-11T03:48:05;15.20;99.90
52209;DHT22;38507;53.132;6.394;2022-07-11T03:50:31;15.20;99.90
52209;DHT22;38507;53.132;6.394;2022-07-11T03:52:57;15.20;99.90
52209;DHT22;38507;53.132;6.394;2022-07-11T03:55:24;15.20;99.90
52209;DHT22;38507;53.132;6.394;2022-07-11T03:57:50;15.20;99.90
52209;DHT22;38507;53.132;6.394;2022-07-11T04:00:16;15.20;99.90
52209;DHT22;38507;53.132;6.394;2022-07-11T04:02:42;15.40;99.90
52209;DHT22;38507;53.132;6.394;2022-07-11T04:05:08;15.20;99.90
52209;DHT22;38507;53.132;6.394;2022-07-11T04:07:34;15.20;99.90
52209;DHT22;38507;53.132;6.394;2022-07-11T04:09:59;15.20;99.90
52209;DHT22;38507;53.132;6.394;2022-07-11T04:12:25;15.30;99.90
52209;DHT22;38507;53.132;6.394;2022-07-11T04:14:50;15.20;99.90
52209;DHT22;38507;53.132;6.394;2022-07-11T04:17:16;15.30;99.90
52209;DHT22;38507;53.132;6.394;2022-07-11T04:19:42;15.30;99.90
52209;DHT22;38507;53.132;6.394;2022-07-11T04:22:11;15.20;99.90
52209;DHT22;38507;53.132;6.394;2022-07-11T04:24:37;15.20;99.90
52209;DHT22;38507;53.132;6.394;2022-07-11T04:27:03;15.40;99.90
52209;DHT22;38507;53.132;6.394;2022-07-11T04:29:29;15.30;99.90
52209;DHT22;38507;53.132;6.394;2022-07-11T04:31:55;15.50;99.90
52209;DHT22;38507;53.132;6.394;2022-07-11T04:34:20;15.30;99.90
52209;DHT22;38507;53.132;6.394;2022-07-11T04:36:46;15.30;99.90
52209;DHT22;38507;53.132;6.394;2022-07-11T04:39:12;15.50;99.90
52209;DHT22;38507;53.132;6.394;2022-07-11T04:41:38;15.30;99.90
52209;DHT22;38507;53.132;6.394;2022-07-11T04:44:04;15.30;99.90
52209;DHT22;38507;53.132;6.394;2022-07-11T04:46:30;15.30;99.90
52209;DHT22;38507;53.132;6.394;2022-07-11T04:48:57;15.60;99.90
52209;DHT22;38507;53.132;6.394;2022-07-11T04:51:23;15.40;99.90
52209;DHT22;38507;53.132;6.394;2022-07-11T04:53:50;15.40;99.90
52209;DHT22;38507;53.132;6.394;2022-07-11T04:56:16;15.40;99.90
52209;DHT22;38507;53.132;6.394;2022-07-11T04:58:42;15.40;99.90
52209;DHT22;38507;53.132;6.394;2022-07-11T05:01:08;15.50;99.90
52209;DHT22;38507;53.132;6.394;2022-07-11T05:03:34;15.40;99.90
52209;DHT22;38507;53.132;6.394;2022-07-11T05:05:59;15.40;99.90
52209;DHT22;38507;53.132;6.394;2022-07-11T05:08:25;15.50;99.90
52209;DHT22;38507;53.132;6.394;2022-07-11T05:10:51;15.50;99.90
52209;DHT22;38507;53.132;6.394;2022-07-11T05:13:16;15.50;99.90
52209;DHT22;38507;53.132;6.394;2022-07-11T05:15:42;15.50;99.90
52209;DHT22;38507;53.132;6.394;2022-07-11T05:18:09;15.50;99.90
52209;DHT22;38507;53.132;6.394;2022-07-11T05:20:35;15.50;99.90
52209;DHT22;38507;53.132;6.394;2022-07-11T05:23:01;15.50;99.90
52209;DHT22;38507;53.132;6.394;2022-07-11T05:25:26;15.50;99.90
52209;DHT22;38507;53.132;6.394;2022-07-11T05:27:52;15.50;99.90
52209;DHT22;38507;53.132;6.394;2022-07-11T05:30:18;15.60;99.90
52209;DHT22;38507;53.132;6.394;2022-07-11T05:32:43;15.60;99.90
52209;DHT22;38507;53.132;6.394;2022-07-11T05:35:09;15.60;99.90
52209;DHT22;38507;53.132;6.394;2022-07-11T05:37:35;15.60;99.90
52209;DHT22;38507;53.132;6.394;2022-07-11T05:40:01;15.70;99.90
52209;DHT22;38507;53.132;6.394;2022-07-11T05:42:27;15.70;99.90
52209;DHT22;38507;53.132;6.394;2022-07-11T05:44:54;15.70;99.90
52209;DHT22;38507;53.132;6.394;2022-07-11T05:47:20;15.70;99.90
52209;DHT22;38507;53.132;6.394;2022-07-11T05:49:45;15.70;99.90
52209;DHT22;38507;53.132;6.394;2022-07-11T05:52:11;15.70;99.90
52209;DHT22;38507;53.132;6.394;2022-07-11T05:54:37;15.80;99.90
52209;DHT22;38507;53.132;6.394;2022-07-11T05:57:02;15.80;99.90
52209;DHT22;38507;53.132;6.394;2022-07-11T05:59:29;15.80;99.90
52209;DHT22;38507;53.132;6.394;2022-07-11T06:01:55;15.90;99.90
52209;DHT22;38507;53.132;6.394;2022-07-11T06:04:21;16.00;99.90
52209;DHT22;38507;53.132;6.394;2022-07-11T06:06:46;15.90;99.90
52209;DHT22;38507;53.132;6.394;2022-07-11T06:09:12;16.10;99.90
52209;DHT22;38507;53.132;6.394;2022-07-11T06:11:38;15.90;99.90
52209;DHT22;38507;53.132;6.394;2022-07-11T06:14:04;15.90;99.90
52209;DHT22;38507;53.132;6.394;2022-07-11T06:16:31;16.00;99.90
52209;DHT22;38507;53.132;6.394;2022-07-11T06:18:57;16.20;99.90
52209;DHT22;38507;53.132;6.394;2022-07-11T06:21:24;16.00;99.90
52209;DHT22;38507;53.132;6.394;2022-07-11T06:23:50;16.10;99.90
52209;DHT22;38507;53.132;6.394;2022-07-11T06:26:16;16.00;99.90
52209;DHT22;38507;53.132;6.394;2022-07-11T06:28:42;16.30;99.90
52209;DHT22;38507;53.132;6.394;2022-07-11T06:31:08;16.10;99.90
52209;DHT22;38507;53.132;6.394;2022-07-11T06:33:34;16.10;99.90
52209;DHT22;38507;53.132;6.394;2022-07-11T06:36:03;16.20;99.90
52209;DHT22;38507;53.132;6.394;2022-07-11T06:38:29;16.20;99.90
52209;DHT22;38507;53.132;6.394;2022-07-11T06:40:55;16.20;99.90
52209;DHT22;38507;53.132;6.394;2022-07-11T06:43:22;16.20;99.90
52209;DHT22;38507;53.132;6.394;2022-07-11T06:45:47;16.30;99.90
52209;DHT22;38507;53.132;6.394;2022-07-11T06:48:13;16.30;99.90
52209;DHT22;38507;53.132;6.394;2022-07-11T06:50:40;16.40;99.90
52209;DHT22;38507;53.132;6.394;2022-07-11T06:53:06;16.40;99.90
52209;DHT22;38507;53.132;6.394;2022-07-11T06:55:32;16.50;99.90
52209;DHT22;38507;53.132;6.394;2022-07-11T06:57:59;16.50;99.90
52209;DHT22;38507;53.132;6.394;2022-07-11T07:00:24;16.50;99.90
52209;DHT22;38507;53.132;6.394;2022-07-11T07:02:50;16.50;99.90
52209;DHT22;38507;53.132;6.394;2022-07-11T07:05:16;16.50;99.90
52209;DHT22;38507;53.132;6.394;2022-07-11T07:07:41;16.60;99.90
52209;DHT22;38507;53.132;6.394;2022-07-11T07:10:07;16.60;99.90
52209;DHT22;38507;53.132;6.394;2022-07-11T07:12:37;16.50;99.90
52209;DHT22;38507;53.132;6.394;2022-07-11T07:15:04;16.60;99.90
52209;DHT22;38507;53.132;6.394;2022-07-11T07:17:29;16.60;99.90
52209;DHT22;38507;53.132;6.394;2022-07-11T07:19:56;16.50;99.90
52209;DHT22;38507;53.132;6.394;2022-07-11T07:22:22;16.60;99.90
52209;DHT22;38507;53.132;6.394;2022-07-11T07:24:48;16.60;99.90
52209;DHT22;38507;53.132;6.394;2022-07-11T07:27:13;16.90;99.90
52209;DHT22;38507;53.132;6.394;2022-07-11T07:29:39;16.80;99.90
52209;DHT22;38507;53.132;6.394;2022-07-11T07:32:06;16.80;99.90
52209;DHT22;38507;53.132;6.394;2022-07-11T07:34:32;16.90;99.90
52209;DHT22;38507;53.132;6.394;2022-07-11T07:36:59;17.00;99.90
52209;DHT22;38507;53.132;6.394;2022-07-11T07:39:35;17.00;99.90
52209;DHT22;38507;53.132;6.394;2022-07-11T07:42:01;17.20;99.90
52209;DHT22;38507;53.132;6.394;2022-07-11T07:44:27;17.30;99.90
52209;DHT22;38507;53.132;6.394;2022-07-11T07:46:52;17.40;99.90
52209;DHT22;38507;53.132;6.394;2022-07-11T07:49:18;17.60;99.90
52209;DHT22;38507;53.132;6.394;2022-07-11T07:51:44;17.70;99.90
52209;DHT22;38507;53.132;6.394;2022-07-11T07:54:09;17.70;99.90
52209;DHT22;38507;53.132;6.394;2022-07-11T07:56:35;17.70;99.90
52209;DHT22;38507;53.132;6.394;2022-07-11T07:59:04;17.60;99.90
52209;DHT22;38507;53.132;6.394;2022-07-11T08:01:30;17.50;99.90
52209;DHT22;38507;53.132;6.394;2022-07-11T08:04:07;17.40;99.90
52209;DHT22;38507;53.132;6.394;2022-07-11T08:06:34;17.50;99.90
52209;DHT22;38507;53.132;6.394;2022-07-11T08:09:01;17.50;99.90
52209;DHT22;38507;53.132;6.394;2022-07-11T08:11:28;17.60;99.90
52209;DHT22;38507;53.132;6.394;2022-07-11T08:13:54;17.70;99.90
52209;DHT22;38507;53.132;6.394;2022-07-11T08:16:20;17.90;99.90
52209;DHT22;38507;53.132;6.394;2022-07-11T08:18:47;18.20;99.90
52209;DHT22;38507;53.132;6.394;2022-07-11T08:21:13;18.30;99.90
52209;DHT22;38507;53.132;6.394;2022-07-11T08:23:38;18.30;99.90
52209;DHT22;38507;53.132;6.394;2022-07-11T08:26:04;18.30;99.90
52209;DHT22;38507;53.132;6.394;2022-07-11T08:28:30;18.40;99.90
52209;DHT22;38507;53.132;6.394;2022-07-11T08:30:56;18.30;99.90
52209;DHT22;38507;53.132;6.394;2022-07-11T08:33:22;18.30;99.90
52209;DHT22;38507;53.132;6.394;2022-07-11T08:35:47;18.30;99.90
52209;DHT22;38507;53.132;6.394;2022-07-11T08:38:13;18.30;99.90
52209;DHT22;38507;53.132;6.394;2022-07-11T08:40:41;18.50;99.90
52209;DHT22;38507;53.132;6.394;2022-07-11T08:43:14;18.60;99.90
52209;DHT22;38507;53.132;6.394;2022-07-11T08:45:41;18.50;99.90
52209;DHT22;38507;53.132;6.394;2022-07-11T08:48:07;18.50;99.90
52209;DHT22;38507;53.132;6.394;2022-07-11T08:50:34;18.40;99.90
52209;DHT22;38507;53.132;6.394;2022-07-11T08:53:03;18.60;99.90
52209;DHT22;38507;53.132;6.394;2022-07-11T08:55:28;18.70;99.90
52209;DHT22;38507;53.132;6.394;2022-07-11T08:57:54;18.70;99.90
52209;DHT22;38507;53.132;6.394;2022-07-11T09:00:20;18.70;99.90
52209;DHT22;38507;53.132;6.394;2022-07-11T09:02:48;18.70;99.90
52209;DHT22;38507;53.132;6.394;2022-07-11T09:05:15;18.60;99.90
52209;DHT22;38507;53.132;6.394;2022-07-11T09:07:46;18.70;99.90
52209;DHT22;38507;53.132;6.394;2022-07-11T09:10:13;18.70;99.90
52209;DHT22;38507;53.132;6.394;2022-07-11T09:13:00;18.60;99.90
52209;DHT22;38507;53.132;6.394;2022-07-11T09:15:37;18.50;99.90
52209;DHT22;38507;53.132;6.394;2022-07-11T09:18:05;18.60;99.90
52209;DHT22;38507;53.132;6.394;2022-07-11T09:20:55;18.60;99.90
52209;DHT22;38507;53.132;6.394;2022-07-11T09:23:42;18.60;99.90
52209;DHT22;38507;53.132;6.394;2022-07-11T09:26:32;18.60;99.90
52209;DHT22;38507;53.132;6.394;2022-07-11T09:31:30;18.60;99.90
52209;DHT22;38507;53.132;6.394;2022-07-11T09:34:09;18.80;99.90
52209;DHT22;38507;53.132;6.394;2022-07-11T09:39:07;18.70;99.90
52209;DHT22;38507;53.132;6.394;2022-07-11T09:41:34;18.80;99.90
52209;DHT22;38507;53.132;6.394;2022-07-11T09:44:21;18.80;99.90
52209;DHT22;38507;53.132;6.394;2022-07-11T09:46:49;19.10;99.90
52209;DHT22;38507;53.132;6.394;2022-07-11T09:49:28;18.80;99.90
52209;DHT22;38507;53.132;6.394;2022-07-11T09:51:55;18.80;99.90
52209;DHT22;38507;53.132;6.394;2022-07-11T09:54:22;18.80;99.90
52209;DHT22;38507;53.132;6.394;2022-07-11T09:56:47;18.90;99.90
52209;DHT22;38507;53.132;6.394;2022-07-11T09:59:17;18.60;99.90
52209;DHT22;38507;53.132;6.394;2022-07-11T10:01:44;18.60;99.90
52209;DHT22;38507;53.132;6.394;2022-07-11T10:04:10;18.60;99.90
52209;DHT22;38507;53.132;6.394;2022-07-11T10:06:37;18.50;99.90
52209;DHT22;38507;53.132;6.394;2022-07-11T10:09:05;18.60;99.90
52209;DHT22;38507;53.132;6.394;2022-07-11T10:11:32;18.70;99.90
52209;DHT22;38507;53.132;6.394;2022-07-11T10:14:03;18.40;99.90
52209;DHT22;38507;53.132;6.394;2022-07-11T10:24:56;18.70;99.90
52209;DHT22;38507;53.132;6.394;2022-07-11T10:27:39;18.80;99.90
52209;DHT22;38507;53.132;6.394;2022-07-11T10:30:07;19.00;99.90
52209;DHT22;38507;53.132;6.394;2022-07-11T10:32:59;19.10;99.90
52209;DHT22;38507;53.132;6.394;2022-07-11T10:35:29;19.20;99.90
52209;DHT22;38507;53.132;6.394;2022-07-11T10:37:55;19.30;99.90
52209;DHT22;38507;53.132;6.394;2022-07-11T10:46:08;19.40;99.90
52209;DHT22;38507;53.132;6.394;2022-07-11T10:51:27;19.60;99.90
52209;DHT22;38507;53.132;6.394;2022-07-11T10:53:53;19.60;99.90
52209;DHT22;38507;53.132;6.394;2022-07-11T10:56:43;19.60;99.90
52209;DHT22;38507;53.132;6.394;2022-07-11T10:59:15;19.60;99.90
52209;DHT22;38507;53.132;6.394;2022-07-11T11:02:04;19.80;99.90
52209;DHT22;38507;53.132;6.394;2022-07-11T11:04:46;19.90;99.90
52209;DHT22;38507;53.132;6.394;2022-07-11T11:07:28;19.80;99.90
52209;DHT22;38507;53.132;6.394;2022-07-11T11:09:54;19.90;99.90
52209;DHT22;38507;53.132;6.394;2022-07-11T11:12:31;19.90;99.90
52209;DHT22;38507;53.132;6.394;2022-07-11T11:17:57;19.90;99.90
52209;DHT22;38507;53.132;6.394;2022-07-11T11:20:32;19.80;99.90
52209;DHT22;38507;53.132;6.394;2022-07-11T11:23:21;19.90;99.90
52209;DHT22;38507;53.132;6.394;2022-07-11T11:25:51;20.00;99.90
52209;DHT22;38507;53.132;6.394;2022-07-11T11:28:20;20.10;99.90
52209;DHT22;38507;53.132;6.394;2022-07-11T11:30:53;19.90;99.90
52209;DHT22;38507;53.132;6.394;2022-07-11T11:33:19;20.00;99.90
52209;DHT22;38507;53.132;6.394;2022-07-11T11:35:57;20.10;99.90
52209;DHT22;38507;53.132;6.394;2022-07-11T11:38:23;20.10;99.90
52209;DHT22;38507;53.132;6.394;2022-07-11T11:40:49;20.00;99.90
52209;DHT22;38507;53.132;6.394;2022-07-11T11:43:19;20.00;99.90
52209;DHT22;38507;53.132;6.394;2022-07-11T11:45:52;20.00;99.90
52209;DHT22;38507;53.132;6.394;2022-07-11T11:48:27;20.00;99.90
52209;DHT22;38507;53.132;6.394;2022-07-11T11:51:00;19.90;99.90
52209;DHT22;38507;53.132;6.394;2022-07-11T11:53:26;20.10;99.90
52209;DHT22;38507;53.132;6.394;2022-07-11T11:55:52;20.20;99.90
52209;DHT22;38507;53.132;6.394;2022-07-11T11:58:17;20.20;99.90
52209;DHT22;38507;53.132;6.394;2022-07-11T12:00:53;20.30;99.90
52209;DHT22;38507;53.132;6.394;2022-07-11T12:03:20;20.20;99.90
52209;DHT22;38507;53.132;6.394;2022-07-11T12:05:54;20.30;99.90
52209;DHT22;38507;53.132;6.394;2022-07-11T12:08:27;20.20;99.90
52209;DHT22;38507;53.132;6.394;2022-07-11T12:10:54;20.20;99.90
52209;DHT22;38507;53.132;6.394;2022-07-11T12:13:20;20.30;99.90
52209;DHT22;38507;53.132;6.394;2022-07-11T12:15:46;20.30;99.90
52209;DHT22;38507;53.132;6.394;2022-07-11T12:18:36;20.30;99.90
52209;DHT22;38507;53.132;6.394;2022-07-11T12:21:12;20.30;99.90
52209;DHT22;38507;53.132;6.394;2022-07-11T12:23:39;20.30;99.90
52209;DHT22;38507;53.132;6.394;2022-07-11T12:26:05;20.30;99.90
52209;DHT22;38507;53.132;6.394;2022-07-11T12:28:34;20.40;99.90
52209;DHT22;38507;53.132;6.394;2022-07-11T12:30:59;20.40;99.90
52209;DHT22;38507;53.132;6.394;2022-07-11T12:33:27;20.20;99.90
52209;DHT22;38507;53.132;6.394;2022-07-11T12:36:00;20.40;99.90
52209;DHT22;38507;53.132;6.394;2022-07-11T12:38:50;20.40;99.90
52209;DHT22;38507;53.132;6.394;2022-07-11T12:41:17;20.50;99.90
52209;DHT22;38507;53.132;6.394;2022-07-11T12:43:44;20.40;99.90
52209;DHT22;38507;53.132;6.394;2022-07-11T12:46:31;20.30;99.90
52209;DHT22;38507;53.132;6.394;2022-07-11T12:49:00;20.30;99.90
52209;DHT22;38507;53.132;6.394;2022-07-11T12:51:28;20.30;99.90
52209;DHT22;38507;53.132;6.394;2022-07-11T12:54:04;20.40;99.90
52209;DHT22;38507;53.132;6.394;2022-07-11T12:56:31;20.40;99.90
52209;DHT22;38507;53.132;6.394;2022-07-11T12:58:58;20.50;99.90
52209;DHT22;38507;53.132;6.394;2022-07-11T13:01:24;20.40;99.90
52209;DHT22;38507;53.132;6.394;2022-07-11T13:03:50;20.30;99.90
52209;DHT22;38507;53.132;6.394;2022-07-11T13:06:16;20.40;99.90
52209;DHT22;38507;53.132;6.394;2022-07-11T13:08:42;20.50;99.90
52209;DHT22;38507;53.132;6.394;2022-07-11T13:11:18;20.50;99.90
52209;DHT22;38507;53.132;6.394;2022-07-11T13:13:46;20.50;99.90
52209;DHT22;38507;53.132;6.394;2022-07-11T13:16:16;20.40;99.90
52209;DHT22;38507;53.132;6.394;2022-07-11T13:18:42;20.50;99.90
52209;DHT22;38507;53.132;6.394;2022-07-11T13:21:08;20.60;99.90
52209;DHT22;38507;53.132;6.394;2022-07-11T13:23:35;20.60;99.90
52209;DHT22;38507;53.132;6.394;2022-07-11T13:26:01;20.60;99.90
52209;DHT22;38507;53.132;6.394;2022-07-11T13:28:27;20.80;99.90
52209;DHT22;38507;53.132;6.394;2022-07-11T13:30:53;20.70;99.90
52209;DHT22;38507;53.132;6.394;2022-07-11T13:33:19;20.70;99.90
52209;DHT22;38507;53.132;6.394;2022-07-11T13:35:46;20.70;99.90
52209;DHT22;38507;53.132;6.394;2022-07-11T13:38:12;20.70;99.90
52209;DHT22;38507;53.132;6.394;2022-07-11T13:40:38;20.80;99.90
52209;DHT22;38507;53.132;6.394;2022-07-11T13:43:04;20.90;99.90
52209;DHT22;38507;53.132;6.394;2022-07-11T13:45:30;20.90;99.90
52209;DHT22;38507;53.132;6.394;2022-07-11T13:47:56;20.90;99.90
52209;DHT22;38507;53.132;6.394;2022-07-11T13:50:22;20.80;99.90
52209;DHT22;38507;53.132;6.394;2022-07-11T13:52:48;20.90;99.90
52209;DHT22;38507;53.132;6.394;2022-07-11T13:55:19;20.90;99.90
52209;DHT22;38507;53.132;6.394;2022-07-11T13:57:46;20.80;99.90
52209;DHT22;38507;53.132;6.394;2022-07-11T14:00:15;20.80;99.90
52209;DHT22;38507;53.132;6.394;2022-07-11T14:02:41;20.90;99.90
52209;DHT22;38507;53.132;6.394;2022-07-11T14:05:07;20.80;99.90
52209;DHT22;38507;53.132;6.394;2022-07-11T14:07:33;20.70;99.90
52209;DHT22;38507;53.132;6.394;2022-07-11T14:09:58;20.80;99.90
52209;DHT22;38507;53.132;6.394;2022-07-11T14:12:24;20.80;99.90
52209;DHT22;38507;53.132;6.394;2022-07-11T14:14:50;20.80;99.90
52209;DHT22;38507;53.132;6.394;2022-07-11T14:17:15;20.90;99.90
52209;DHT22;38507;53.132;6.394;2022-07-11T14:19:41;20.90;99.90
52209;DHT22;38507;53.132;6.394;2022-07-11T14:22:07;20.90;99.90
52209;DHT22;38507;53.132;6.394;2022-07-11T14:24:35;20.80;99.90
52209;DHT22;38507;53.132;6.394;2022-07-11T14:27:02;20.90;99.90
52209;DHT22;38507;53.132;6.394;2022-07-11T14:29:28;20.90;99.90
52209;DHT22;38507;53.132;6.394;2022-07-11T14:31:54;20.90;99.90
52209;DHT22;38507;53.132;6.394;2022-07-11T14:34:24;21.00;99.90
52209;DHT22;38507;53.132;6.394;2022-07-11T14:36:49;21.00;99.90
52209;DHT22;38507;53.132;6.394;2022-07-11T14:39:15;21.10;99.90
52209;DHT22;38507;53.132;6.394;2022-07-11T14:41:42;21.10;99.90
52209;DHT22;38507;53.132;6.394;2022-07-11T14:44:10;21.10;99.90
52209;DHT22;38507;53.132;6.394;2022-07-11T14:46:35;21.20;99.90
52209;DHT22;38507;53.132;6.394;2022-07-11T14:49:01;21.20;99.90
52209;DHT22;38507;53.132;6.394;2022-07-11T14:51:27;21.30;99.90
52209;DHT22;38507;53.132;6.394;2022-07-11T14:53:54;21.30;99.90
52209;DHT22;38507;53.132;6.394;2022-07-11T14:56:20;21.30;99.90
52209;DHT22;38507;53.132;6.394;2022-07-11T14:58:45;21.40;99.90
52209;DHT22;38507;53.132;6.394;2022-07-11T15:01:11;21.40;99.90
52209;DHT22;38507;53.132;6.394;2022-07-11T15:03:37;21.30;99.90
52209;DHT22;38507;53.132;6.394;2022-07-11T15:06:04;21.30;99.90
52209;DHT22;38507;53.132;6.394;2022-07-11T15:08:29;21.40;99.90
52209;DHT22;38507;53.132;6.394;2022-07-11T15:11:33;21.40;99.90
52209;DHT22;38507;53.132;6.394;2022-07-11T15:14:17;21.30;99.90
52209;DHT22;38507;53.132;6.394;2022-07-11T15:16:43;21.20;99.90
52209;DHT22;38507;53.132;6.394;2022-07-11T15:19:11;21.20;99.90
52209;DHT22;38507;53.132;6.394;2022-07-11T15:21:36;21.20;99.90
52209;DHT22;38507;53.132;6.394;2022-07-11T15:24:02;21.30;99.90
52209;DHT22;38507;53.132;6.394;2022-07-11T15:26:28;21.40;99.90
52209;DHT22;38507;53.132;6.394;2022-07-11T15:28:54;21.40;99.90
52209;DHT22;38507;53.132;6.394;2022-07-11T15:31:20;21.50;99.90
52209;DHT22;38507;53.132;6.394;2022-07-11T15:33:46;21.50;99.90
52209;DHT22;38507;53.132;6.394;2022-07-11T15:36:15;21.40;99.90
52209;DHT22;38507;53.132;6.394;2022-07-11T15:38:41;21.50;99.90
52209;DHT22;38507;53.132;6.394;2022-07-11T15:41:14;21.50;99.90
52209;DHT22;38507;53.132;6.394;2022-07-11T15:43:40;21.60;99.90
52209;DHT22;38507;53.132;6.394;2022-07-11T15:46:06;21.60;99.90
52209;DHT22;38507;53.132;6.394;2022-07-11T15:48:31;21.70;99.90
52209;DHT22;38507;53.132;6.394;2022-07-11T15:50:57;21.80;99.90
52209;DHT22;38507;53.132;6.394;2022-07-11T15:53:23;21.90;99.90
52209;DHT22;38507;53.132;6.394;2022-07-11T15:55:49;22.00;99.90
52209;DHT22;38507;53.132;6.394;2022-07-11T15:58:15;22.00;99.90